Time;durP1;ratioP1;P1;durP2;ratioP2;P2;SDS_P1;SDS_P2;PMS_P1;PMS_P2;Temp;Humidity;BMP_temperature;BMP_pressure;BME280_temperature;BME280_humidity;BME280_pressure;Samples;Min_cycle;Max_cycle;Signal;HPM_P1;HPM_P2
2023/05/04 00:00:11;;;;;;;5.40;2.22;;;7.10;1.00;;;;;;5074676;28;20092;-64
2023/05/04 00:02:37;;;;;;;2.00;1.27;;;6.50;99.90;;;;;;5074944;28;20075;-64
2023/05/04 00:05:06;;;;;;;6.20;1.92;;;6.60;1.00;;;;;;5074910;28;20037;-64
2023/05/04 00:07:31;;;;;;;3.50;1.95;;;6.40;99.90;;;;;;5074925;28;20033;-64
2023/05/04 00:09:58;;;;;;;6.40;1.88;;;6.50;99.90;;;;;;5074875;28;20055;-64
2023/05/04 00:12:24;;;;;;;3.67;2.00;;;6.50;1.00;;;;;;5074317;28;20043;-63
2023/05/04 00:14:49;;;;;;;2.63;1.58;;;6.40;1.00;;;;;;5074186;28;20036;-63
2023/05/04 00:17:15;;;;;;;3.15;1.52;;;6.40;1.00;;;;;;5073137;28;20086;-63
2023/05/04 00:19:42;;;;;;;10.35;2.70;;;6.60;99.90;;;;;;5074390;28;20076;-64
2023/05/04 00:22:08;;;;;;;3.17;1.77;;;6.40;1.00;;;;;;5074369;28;20076;-64
2023/05/04 00:24:34;;;;;;;6.40;2.55;;;6.40;1.00;;;;;;5074523;28;20079;-64
2023/05/04 00:27:00;;;;;;;6.05;2.30;;;6.30;1.00;;;;;;5074264;28;20044;-64
2023/05/04 00:29:25;;;;;;;3.60;1.83;;;6.50;1.00;;;;;;5074423;28;20397;-64
2023/05/04 00:31:51;;;;;;;3.63;2.03;;;6.30;1.00;;;;;;5074409;28;20055;-64
2023/05/04 00:34:17;;;;;;;4.60;1.98;;;6.20;1.00;;;;;;5074334;28;20037;-64
2023/05/04 00:36:43;;;;;;;3.10;1.65;;;6.20;99.90;;;;;;5074285;28;20057;-64
2023/05/04 00:39:08;;;;;;;4.50;2.10;;;6.20;54.90;;;;;;5074279;28;20040;-64
2023/05/04 00:41:34;;;;;;;3.70;2.20;;;6.20;1.00;;;;;;5074266;28;20149;-64
2023/05/04 00:44:02;;;;;;;3.47;2.20;;;6.10;13.60;;;;;;5074198;28;20036;-64
2023/05/04 00:46:28;;;;;;;6.78;2.08;;;6.70;61.40;;;;;;5073869;28;20051;-64
2023/05/04 00:48:54;;;;;;;4.03;2.08;;;6.00;99.90;;;;;;5072598;28;20044;-64
2023/05/04 00:51:24;;;;;;;3.60;1.92;;;6.00;99.90;;;;;;5074060;28;20047;-64
2023/05/04 00:53:50;;;;;;;3.33;1.80;;;5.80;99.90;;;;;;5073958;28;20040;-64
2023/05/04 00:56:20;;;;;;;4.82;2.03;;;6.00;99.90;;;;;;5073603;28;20135;-64
2023/05/04 00:58:45;;;;;;;4.85;1.65;;;5.90;99.90;;;;;;5073895;28;20123;-64
2023/05/04 01:01:11;;;;;;;5.63;2.03;;;6.40;99.90;;;;;;5072192;28;20156;-64
2023/05/04 01:03:37;;;;;;;4.30;1.95;;;5.80;99.90;;;;;;5072507;28;20051;-64
2023/05/04 01:06:21;;;;;;;5.63;2.13;;;5.80;99.90;;;;;;5073731;28;20114;-64
2023/05/04 01:08:58;;;;;;;3.95;2.30;;;5.70;99.90;;;;;;5073687;28;20502;-65
2023/05/04 01:11:32;;;;;;;2.70;1.77;;;5.60;99.90;;;;;;5073712;28;20082;-64
2023/05/04 01:14:00;;;;;;;5.25;1.85;;;5.70;99.90;;;;;;5073432;28;20058;-65
2023/05/04 01:16:26;;;;;;;2.80;1.60;;;5.60;1.00;;;;;;5073351;28;20483;-64
2023/05/04 01:18:51;;;;;;;3.80;1.77;;;5.70;99.90;;;;;;5073222;28;20474;-64
2023/05/04 01:21:17;;;;;;;4.32;1.63;;;5.70;1.00;;;;;;5073331;28;20066;-65
2023/05/04 01:23:43;;;;;;;5.78;2.47;;;5.60;1.00;;;;;;5073049;28;20081;-65
2023/05/04 01:26:25;;;;;;;4.75;2.17;;;5.70;1.00;;;;;;5073016;28;20048;-64
2023/05/04 01:29:03;;;;;;;6.38;2.40;;;5.60;99.90;;;;;;5073441;28;20431;-64
2023/05/04 01:31:30;;;;;;;3.85;2.00;;;5.60;99.90;;;;;;5073373;28;20055;-65
2023/05/04 01:33:56;;;;;;;5.72;2.65;;;5.50;99.90;;;;;;5073301;28;20496;-65
2023/05/04 01:36:22;;;;;;;4.05;2.20;;;5.60;99.90;;;;;;5073292;28;20318;-65
2023/05/04 01:38:48;;;;;;;3.30;1.88;;;5.60;99.90;;;;;;5073306;28;20044;-65
2023/05/04 01:41:14;;;;;;;4.53;2.03;;;5.60;99.90;;;;;;5073127;28;20052;-64
2023/05/04 01:43:41;;;;;;;5.35;1.77;;;5.60;1.00;;;;;;5088543;28;20033;-65
2023/05/04 01:46:06;;;;;;;3.63;2.17;;;5.60;1.00;;;;;;5072834;28;20043;-65
2023/05/04 01:48:32;;;;;;;4.82;2.25;;;6.70;4.70;;;;;;5071603;28;20422;-64
2023/05/04 01:50:58;;;;;;;5.13;2.20;;;5.60;99.90;;;;;;5072793;28;20498;-64
2023/05/04 01:53:23;;;;;;;5.88;2.47;;;5.60;1.00;;;;;;5073092;28;20040;-65
2023/05/04 01:55:49;;;;;;;6.88;2.03;;;5.60;78.80;;;;;;5073024;28;20048;-65
2023/05/04 01:58:17;;;;;;;7.32;1.90;;;5.60;99.90;;;;;;5072994;28;20038;-65
2023/05/04 02:00:42;;;;;;;3.03;1.85;;;5.60;99.90;;;;;;5072843;28;20066;-65
2023/05/04 02:03:08;;;;;;;3.33;2.05;;;5.50;99.90;;;;;;5072981;28;20048;-65
2023/05/04 02:05:33;;;;;;;5.10;2.08;;;5.60;99.90;;;;;;5072934;28;20373;-64
2023/05/04 02:07:59;;;;;;;4.55;2.28;;;5.60;99.90;;;;;;5072964;28;20040;-65
2023/05/04 02:10:25;;;;;;;7.78;2.28;;;5.60;1.00;;;;;;5072568;28;20559;-65
2023/05/04 02:12:51;;;;;;;3.40;2.00;;;5.60;99.90;;;;;;5072885;28;20036;-65
2023/05/04 02:15:16;;;;;;;3.60;1.90;;;5.50;99.90;;;;;;5072888;28;20241;-64
2023/05/04 02:17:42;;;;;;;3.90;2.00;;;5.80;1.00;;;;;;5072440;28;20083;-65
2023/05/04 02:20:09;;;;;;;6.82;2.40;;;5.40;1.00;;;;;;5072690;28;20044;-64
2023/05/04 02:22:34;;;;;;;4.60;1.92;;;5.40;99.90;;;;;;5071345;28;20398;-65
2023/05/04 02:25:00;;;;;;;5.43;2.22;;;5.50;3.30;;;;;;5072863;28;20044;-65
2023/05/04 02:27:26;;;;;;;3.42;2.28;;;5.50;99.90;;;;;;5072717;28;20043;-65
2023/05/04 02:29:51;;;;;;;9.32;2.15;;;5.50;99.90;;;;;;5072803;28;20044;-67
2023/05/04 02:32:17;;;;;;;3.83;2.10;;;5.40;1.00;;;;;;5072732;28;20041;-64
2023/05/04 02:34:43;;;;;;;4.95;2.45;;;5.50;1.00;;;;;;5072769;28;20393;-65
2023/05/04 02:37:08;;;;;;;4.35;2.28;;;5.40;1.00;;;;;;5074756;28;20044;-65
2023/05/04 02:39:34;;;;;;;3.45;1.83;;;5.40;99.90;;;;;;5076492;28;20094;-65
2023/05/04 02:42:00;;;;;;;4.28;2.42;;;5.40;99.90;;;;;;5076595;28;20068;-64
2023/05/04 02:44:25;;;;;;;3.05;1.77;;;5.50;99.90;;;;;;5076439;28;20040;-65
2023/05/04 02:46:51;;;;;;;3.40;2.13;;;5.40;99.90;;;;;;5076486;28;20035;-65
2023/05/04 02:49:16;;;;;;;4.93;2.65;;;5.40;99.90;;;;;;5076367;28;20085;-65
2023/05/04 02:51:42;;;;;;;4.43;2.25;;;5.40;99.90;;;;;;5076360;28;20059;-64
2023/05/04 02:54:07;;;;;;;4.28;2.55;;;5.40;99.90;;;;;;5075934;28;20495;-65
2023/05/04 02:56:33;;;;;;;5.25;2.55;;;5.40;99.90;;;;;;5076286;28;20045;-65
2023/05/04 02:58:59;;;;;;;4.07;2.10;;;5.40;1.00;;;;;;5076237;28;20081;-65
2023/05/04 03:01:24;;;;;;;6.13;2.42;;;5.40;43.30;;;;;;5076040;28;20032;-65
2023/05/04 03:03:50;;;;;;;5.97;3.08;;;5.40;99.90;;;;;;5076126;28;20032;-64
2023/05/04 03:06:15;;;;;;;5.18;2.55;;;5.50;99.90;;;;;;5074783;28;20128;-64
2023/05/04 03:08:41;;;;;;;6.35;2.38;;;5.40;99.90;;;;;;5075726;28;20055;-64
2023/05/04 03:11:07;;;;;;;5.47;2.58;;;5.60;99.90;;;;;;5075866;28;20040;-64
2023/05/04 03:13:32;;;;;;;4.10;2.28;;;5.30;1.00;;;;;;5075625;28;20043;-64
2023/05/04 03:15:58;;;;;;;4.28;2.17;;;5.40;99.90;;;;;;5075730;28;20065;-64
2023/05/04 03:18:23;;;;;;;3.95;2.30;;;5.40;99.90;;;;;;5074658;28;20097;-64
2023/05/04 03:20:49;;;;;;;4.20;2.22;;;5.50;99.90;;;;;;5075735;28;20048;-64
2023/05/04 03:23:14;;;;;;;5.22;2.60;;;5.60;92.90;;;;;;5075781;28;20033;-65
2023/05/04 03:25:40;;;;;;;6.38;2.88;;;5.50;99.90;;;;;;5075779;28;20052;-64
2023/05/04 03:28:06;;;;;;;6.07;2.75;;;5.40;91.50;;;;;;5074058;28;20051;-65
2023/05/04 03:30:31;;;;;;;6.75;3.35;;;5.50;99.90;;;;;;5075607;28;20435;-65
2023/05/04 03:32:57;;;;;;;5.35;2.60;;;5.50;1.00;;;;;;5075588;28;20071;-64
2023/05/04 03:35:22;;;;;;;7.03;2.67;;;5.50;99.90;;;;;;5075200;28;20123;-65
2023/05/04 03:37:48;;;;;;;4.90;2.50;;;5.50;99.90;;;;;;5075457;28;20045;-64
2023/05/04 03:40:14;;;;;;;4.50;2.72;;;5.40;99.90;;;;;;5075079;28;20127;-65
2023/05/04 03:42:39;;;;;;;7.90;2.80;;;5.50;99.90;;;;;;5075466;28;20029;-65
2023/05/04 03:45:06;;;;;;;3.17;2.05;;;5.40;99.90;;;;;;5075383;28;20040;-64
2023/05/04 03:47:31;;;;;;;5.15;2.95;;;5.40;99.90;;;;;;5074995;28;20032;-65
2023/05/04 03:49:57;;;;;;;7.32;2.90;;;5.50;99.90;;;;;;5075253;28;20050;-65
2023/05/04 03:52:22;;;;;;;8.70;3.15;;;5.50;99.90;;;;;;5075233;28;20033;-64
2023/05/04 03:54:48;;;;;;;7.32;2.67;;;5.20;20.20;;;;;;5073774;28;20111;-65
2023/05/04 03:57:13;;;;;;;6.43;3.05;;;5.50;99.90;;;;;;5075114;28;20438;-65
2023/05/04 03:59:39;;;;;;;7.78;3.63;;;5.40;46.10;;;;;;5074749;28;20059;-65
2023/05/04 04:02:05;;;;;;;8.63;3.25;;;5.50;99.90;;;;;;5075069;28;20033;-64
2023/05/04 04:04:30;;;;;;;4.22;2.63;;;5.50;16.60;;;;;;5075007;28;20071;-64
2023/05/04 04:06:56;;;;;;;6.30;2.78;;;5.80;45.40;;;;;;5074594;28;20032;-64
2023/05/04 04:09:21;;;;;;;5.93;2.65;;;6.50;99.90;;;;;;5074885;28;20039;-64
2023/05/04 04:11:47;;;;;;;10.30;3.83;;;5.60;1.00;;;;;;5074875;28;20044;-64
2023/05/04 04:14:13;;;;;;;4.63;2.97;;;5.70;99.90;;;;;;5074791;28;20431;-64
2023/05/04 04:16:38;;;;;;;7.05;3.50;;;5.60;57.30;;;;;;5074549;28;20097;-64
2023/05/04 04:19:05;;;;;;;4.65;2.67;;;5.60;99.90;;;;;;5074752;28;20047;-64
2023/05/04 04:21:31;;;;;;;6.15;3.10;;;5.60;99.90;;;;;;5074392;28;20476;-64
2023/05/04 04:23:56;;;;;;;7.13;2.92;;;5.70;1.00;;;;;;5074305;28;20037;-64
2023/05/04 04:26:22;;;;;;;7.70;2.80;;;5.70;1.00;;;;;;5074571;28;20055;-64
2023/05/04 04:28:49;;;;;;;5.05;2.72;;;5.80;99.90;;;;;;5073320;28;20119;-64
2023/05/04 04:31:18;;;;;;;7.72;2.75;;;5.80;99.90;;;;;;5072845;28;20048;-64
2023/05/04 04:33:46;;;;;;;4.22;2.47;;;5.70;99.90;;;;;;5074078;28;20032;-64
2023/05/04 04:36:15;;;;;;;5.97;3.17;;;5.80;99.90;;;;;;5074359;28;20044;-64
2023/05/04 04:38:41;;;;;;;6.18;3.05;;;5.90;99.90;;;;;;5072831;28;20048;-64
2023/05/04 04:41:07;;;;;;;6.40;3.28;;;5.90;99.90;;;;;;5074102;28;20047;-64
2023/05/04 04:43:32;;;;;;;3.97;2.42;;;6.00;99.90;;;;;;5074213;28;20036;-64
2023/05/04 04:45:58;;;;;;;5.57;3.20;;;;;;;;;;5073877;28;20039;-64
2023/05/04 04:48:24;;;;;;;5.75;3.05;;;;;;;;;;5074026;28;20396;-64
2023/05/04 04:50:51;;;;;;;7.78;2.80;;;;;;;;;;5072844;28;20442;-64
2023/05/04 04:53:17;;;;;;;6.80;2.80;;;6.20;99.90;;;;;;5073741;28;20044;-63
2023/05/04 04:55:43;;;;;;;5.93;2.55;;;6.10;1.00;;;;;;5073891;28;20036;-65
2023/05/04 04:58:09;;;;;;;6.20;3.17;;;;;;;;;;5073623;28;20045;-65
2023/05/04 05:00:35;;;;;;;9.52;3.47;;;;;;;;;;5073619;28;20051;-64
2023/05/04 05:03:03;;;;;;;9.23;3.25;;;;;;;;;;5073520;28;20041;-65
2023/05/04 05:05:29;;;;;;;4.93;2.92;;;;;;;;;;5073791;28;20037;-65
2023/05/04 05:07:55;;;;;;;5.65;3.15;;;;;;;;;;5073732;28;20567;-65
2023/05/04 05:10:21;;;;;;;7.10;3.03;;;;;;;;;;5072158;28;20472;-65
2023/05/04 05:12:49;;;;;;;5.57;2.88;;;;;;;;;;5073619;28;20045;-65
2023/05/04 05:15:16;;;;;;;5.75;2.72;;;;;;;;;;5073550;28;20051;-64
2023/05/04 05:17:41;;;;;;;10.18;2.92;;;;;;;;;;5073069;28;20056;-64
2023/05/04 05:20:11;;;;;;;5.05;2.90;;;;;;;;;;5073336;28;20051;-65
2023/05/04 05:22:37;;;;;;;5.35;2.47;;;;;;;;;;5072089;28;20055;-68
2023/05/04 05:25:04;;;;;;;4.22;2.75;;;;;;;;;;5071844;28;20040;-64
2023/05/04 05:27:30;;;;;;;5.40;2.67;;;;;;;;;;5055447;28;20048;-65
2023/05/04 05:29:56;;;;;;;7.15;3.28;;;;;;;;;;5073370;28;20063;-65
2023/05/04 05:32:22;;;;;;;5.03;3.03;;;6.90;99.90;;;;;;5073271;28;20048;-65
2023/05/04 05:34:48;;;;;;;7.28;3.05;;;6.80;52.40;;;;;;5072035;28;20131;-70
2023/05/04 05:37:13;;;;;;;4.53;2.53;;;6.80;99.90;;;;;;5071915;28;20543;-65
2023/05/04 05:39:39;;;;;;;7.50;3.22;;;6.70;99.90;;;;;;5072907;28;20051;-70
2023/05/04 05:42:05;;;;;;;5.20;2.50;;;6.70;99.90;;;;;;5073090;28;20392;-68
2023/05/04 05:44:30;;;;;;;5.95;2.45;;;6.80;99.90;;;;;;5073209;28;20117;-66
2023/05/04 05:46:56;;;;;;;7.28;2.92;;;6.80;99.90;;;;;;5072775;28;20047;-66
2023/05/04 05:49:22;;;;;;;6.70;3.15;;;6.90;99.90;;;;;;5073105;28;20435;-66
2023/05/04 05:51:47;;;;;;;8.25;3.33;;;6.80;99.90;;;;;;5073064;28;20040;-65
2023/05/04 05:54:13;;;;;;;7.07;2.38;;;6.90;99.90;;;;;;5071448;28;20044;-65
2023/05/04 05:56:38;;;;;;;6.22;2.72;;;7.00;56.20;;;;;;5072916;28;20450;-65
2023/05/04 05:59:04;;;;;;;4.75;2.47;;;7.00;99.90;;;;;;5072895;28;20090;-66
2023/05/04 06:01:29;;;;;;;5.45;2.55;;;7.00;99.90;;;;;;5072533;28;20033;-66
2023/05/04 06:03:55;;;;;;;7.20;2.70;;;7.10;1.00;;;;;;5072925;28;20032;-66
2023/05/04 06:06:20;;;;;;;3.95;2.55;;;7.10;99.90;;;;;;5072932;28;20075;-66
2023/05/04 06:08:46;;;;;;;5.20;2.78;;;7.40;1.00;;;;;;5072886;28;20464;-65
2023/05/04 06:11:12;;;;;;;5.32;2.47;;;7.20;1.00;;;;;;5073292;28;20392;-64
2023/05/04 06:13:38;;;;;;;7.00;3.30;;;7.30;30.30;;;;;;5076963;28;20132;-65
2023/05/04 06:16:04;;;;;;;4.43;2.50;;;7.30;1.00;;;;;;5076853;28;20110;-66
2023/05/04 06:18:29;;;;;;;7.32;2.78;;;7.40;1.00;;;;;;5075379;28;20097;-66
2023/05/04 06:20:59;;;;;;;4.47;2.60;;;7.50;91.70;;;;;;5076703;28;20049;-66
2023/05/04 06:23:28;;;;;;;8.68;2.97;;;7.60;99.90;;;;;;5075467;28;20125;-65
2023/05/04 06:25:53;;;;;;;5.50;3.03;;;7.60;99.90;;;;;;5076729;28;20032;-64
2023/05/04 06:28:19;;;;;;;7.00;2.72;;;7.70;1.00;;;;;;5076630;28;20043;-65
2023/05/04 06:30:45;;;;;;;6.97;2.67;;;8.20;1.00;;;;;;5076533;28;20041;-65
2023/05/04 06:33:10;;;;;;;5.93;3.00;;;7.90;99.90;;;;;;5076525;28;20048;-66
2023/05/04 06:35:36;;;;;;;4.80;2.50;;;7.90;99.90;;;;;;5076384;28;20036;-65
2023/05/04 06:38:02;;;;;;;7.20;3.38;;;8.50;1.00;;;;;;5076192;28;20527;-67
2023/05/04 06:40:27;;;;;;;4.65;2.08;;;8.20;99.90;;;;;;5058195;28;20049;-65
2023/05/04 06:42:53;;;;;;;5.90;2.35;;;8.30;99.90;;;;;;5076457;28;20044;-65
2023/05/04 06:45:19;;;;;;;6.00;2.60;;;8.40;99.90;;;;;;5076382;28;20045;-69
2023/05/04 06:47:45;;;;;;;7.35;2.90;;;8.40;99.90;;;;;;5058070;28;20028;-67
2023/05/04 06:50:11;;;;;;;4.60;2.80;;;8.50;99.90;;;;;;5075957;28;20048;-65
2023/05/04 06:52:38;;;;;;;4.18;2.50;;;8.60;99.90;;;;;;5074547;28;20437;-64
2023/05/04 06:55:06;;;;;;;5.65;2.65;;;8.70;99.90;;;;;;5075690;28;20051;-70
2023/05/04 06:57:31;;;;;;;7.15;2.72;;;8.80;99.90;;;;;;5074486;28;20420;-65
2023/05/04 06:59:57;;;;;;;4.55;2.17;;;8.90;99.90;;;;;;5075870;28;20041;-65
2023/05/04 07:02:23;;;;;;;6.45;2.83;;;9.00;99.90;;;;;;5074633;28;20491;-65
2023/05/04 07:04:49;;;;;;;7.07;2.75;;;9.10;99.90;;;;;;5075911;28;20036;-65
2023/05/04 07:07:14;;;;;;;5.95;2.45;;;9.30;99.90;;;;;;5074334;28;20062;-65
2023/05/04 07:09:42;;;;;;;6.18;2.78;;;9.70;99.90;;;;;;5076316;28;20032;-66
2023/05/04 07:12:08;;;;;;;8.73;3.00;;;9.50;99.90;;;;;;5074270;28;20041;-65
2023/05/04 07:14:33;;;;;;;5.63;2.53;;;9.60;89.90;;;;;;5057891;28;20043;-65
2023/05/04 07:16:59;;;;;;;4.18;2.55;;;9.70;36.40;;;;;;5074192;28;20052;-66
2023/05/04 07:19:25;;;;;;;7.50;3.20;;;9.90;25.20;;;;;;5075650;28;20365;-67
2023/05/04 07:21:51;;;;;;;8.02;2.60;;;10.00;21.10;;;;;;5075214;28;20472;-65
2023/05/04 07:24:17;;;;;;;8.10;2.72;;;10.10;1.00;;;;;;5075388;28;20072;-65
2023/05/04 07:26:42;;;;;;;4.82;2.25;;;10.20;1.00;;;;;;5075525;28;20029;-65
2023/05/04 07:29:08;;;;;;;6.13;2.72;;;10.30;1.00;;;;;;5075163;28;20029;-65
2023/05/04 07:31:35;;;;;;;7.40;3.20;;;10.40;1.00;;;;;;5073952;28;20051;-65
2023/05/04 07:34:00;;;;;;;3.58;2.00;;;10.60;1.00;;;;;;5075536;28;20123;-65
2023/05/04 07:36:26;;;;;;;4.97;2.45;;;10.60;1.00;;;;;;5075365;28;20076;-64
2023/05/04 07:38:52;;;;;;;7.13;2.67;;;10.80;1.00;;;;;;5075027;28;20109;-65
2023/05/04 07:41:18;;;;;;;4.60;2.80;;;10.70;1.00;;;;;;5073753;28;20049;-65
2023/05/04 07:43:45;;;;;;;9.90;2.75;;;11.00;1.00;;;;;;5074973;28;20032;-65
2023/05/04 07:46:11;;;;;;;9.20;2.55;;;11.10;1.00;;;;;;5074924;28;20072;-65
2023/05/04 07:48:37;;;;;;;7.47;2.90;;;11.20;1.00;;;;;;5074929;28;20041;-65
2023/05/04 07:51:02;;;;;;;7.10;2.90;;;11.70;1.00;;;;;;5073921;28;20040;-66
2023/05/04 07:53:28;;;;;;;4.45;2.35;;;11.40;1.00;;;;;;5074823;28;20120;-64
2023/05/04 07:55:56;;;;;;;4.38;2.10;;;11.50;99.90;;;;;;5075215;28;20519;-65
2023/05/04 07:58:22;;;;;;;4.22;2.28;;;11.50;99.90;;;;;;5073885;28;20052;-65
2023/05/04 08:00:48;;;;;;;4.35;2.53;;;11.50;99.90;;;;;;5074754;28;20037;-64
2023/05/04 08:03:13;;;;;;;5.28;2.22;;;11.60;99.90;;;;;;5074890;28;20032;-64
2023/05/04 08:05:39;;;;;;;5.72;2.83;;;11.80;99.90;;;;;;5074972;28;20036;-70
2023/05/04 08:08:07;;;;;;;3.35;2.28;;;11.90;99.90;;;;;;5074632;28;20403;-64
2023/05/04 08:10:35;;;;;;;7.05;2.72;;;12.10;99.90;;;;;;5074833;28;20500;-64
2023/05/04 08:13:01;;;;;;;6.18;2.25;;;12.20;99.90;;;;;;5074811;28;20036;-64
2023/05/04 08:15:28;;;;;;;6.63;2.40;;;12.70;99.90;;;;;;5074717;28;20385;-65
2023/05/04 08:17:53;;;;;;;7.40;2.30;;;12.40;99.90;;;;;;5074178;28;20091;-65
2023/05/04 08:20:19;;;;;;;4.65;2.40;;;12.50;99.90;;;;;;5074404;28;20392;-65
2023/05/04 08:22:45;;;;;;;6.68;2.33;;;12.50;99.90;;;;;;5074527;28;20150;-65
2023/05/04 08:25:11;;;;;;;4.30;2.60;;;12.70;99.90;;;;;;5074445;28;20093;-67
2023/05/04 08:27:37;;;;;;;5.07;2.33;;;12.70;99.90;;;;;;5074187;28;20049;-64
2023/05/04 08:30:03;;;;;;;2.60;1.83;;;12.90;99.90;;;;;;5074315;28;20097;-64
2023/05/04 08:32:29;;;;;;;4.03;2.45;;;13.00;99.90;;;;;;5074295;28;20128;-64
2023/05/04 08:34:55;;;;;;;6.28;2.38;;;13.10;99.90;;;;;;5073145;28;20064;-63
2023/05/04 08:37:20;;;;;;;6.40;2.63;;;13.30;99.90;;;;;;5073936;28;20500;-63
2023/05/04 08:39:46;;;;;;;6.47;2.70;;;14.20;99.90;;;;;;5072819;28;20044;-64
2023/05/04 08:42:12;;;;;;;8.25;2.40;;;13.50;99.90;;;;;;5074059;28;20484;-64
2023/05/04 08:44:37;;;;;;;5.45;2.50;;;13.60;99.90;;;;;;5073779;28;20039;-64
2023/05/04 08:47:03;;;;;;;6.03;2.75;;;13.60;99.90;;;;;;5074054;28;20055;-64
2023/05/04 08:49:29;;;;;;;4.57;2.40;;;13.80;99.90;;;;;;5073589;28;20076;-65
2023/05/04 08:51:56;;;;;;;4.95;2.50;;;;;;;;;;5073620;28;20047;-64
2023/05/04 08:54:23;;;;;;;6.03;2.63;;;13.90;99.90;;;;;;5073882;28;20040;-64
2023/05/04 08:56:51;;;;;;;5.15;2.38;;;14.80;99.90;;;;;;5055868;28;20550;-65
2023/05/04 08:59:21;;;;;;;6.05;2.20;;;13.90;99.90;;;;;;5073718;28;20090;-65
2023/05/04 09:01:51;;;;;;;6.50;2.58;;;14.10;99.90;;;;;;5073702;28;20423;-64
2023/05/04 09:04:17;;;;;;;6.95;2.75;;;14.10;99.90;;;;;;5072233;28;20036;-67
2023/05/04 09:06:43;;;;;;;3.90;2.45;;;14.20;99.90;;;;;;5073251;28;20035;-65
2023/05/04 09:09:09;;;;;;;11.30;2.72;;;14.40;99.90;;;;;;5073191;28;20044;-64
2023/05/04 09:11:35;;;;;;;7.88;2.33;;;14.50;99.90;;;;;;5073347;28;20036;-64
2023/05/04 09:14:01;;;;;;;4.30;2.22;;;15.50;99.90;;;;;;5073248;28;20508;-64
2023/05/04 09:16:36;;;;;;;4.03;2.17;;;14.70;99.90;;;;;;5073189;28;20131;-67
2023/05/04 09:19:03;;;;;;;2.85;2.00;;;14.70;99.90;;;;;;5071946;28;20415;-69
2023/05/04 09:21:30;;;;;;;3.83;2.50;;;14.80;99.90;;;;;;5055117;28;20036;-64
2023/05/04 09:23:57;;;;;;;3.90;2.20;;;14.80;99.90;;;;;;5073376;28;20127;-64
2023/05/04 09:26:30;;;;;;;3.38;2.42;;;14.90;99.90;;;;;;5073414;28;20064;-64
2023/05/04 09:28:56;;;;;;;3.75;2.20;;;15.10;99.90;;;;;;5072972;28;20144;-65
2023/05/04 09:31:22;;;;;;;4.50;2.42;;;;;;;;;;5073265;28;20087;-64
2023/05/04 09:33:49;;;;;;;6.78;2.63;;;;;;;;;;5073254;28;20119;-64
2023/05/04 09:36:17;;;;;;;3.30;2.10;;;;;;;;;;5073218;28;20036;-64
2023/05/04 09:38:43;;;;;;;3.63;1.83;;;;;;;;;;5072907;28;20048;-65
2023/05/04 09:41:09;;;;;;;3.72;2.28;;;;;;;;;;5071706;28;20040;-66
2023/05/04 09:43:39;;;;;;;4.05;2.33;;;;;;;;;;5072791;28;20083;-65
2023/05/04 09:46:07;;;;;;;5.72;2.15;;;;;;;;;;5072762;28;20041;-65
2023/05/04 09:48:33;;;;;;;4.38;2.50;;;15.70;1.00;;;;;;5073117;28;20051;-65
2023/05/04 09:51:02;;;;;;;3.58;2.35;;;15.90;1.00;;;;;;5073005;28;20044;-65
2023/05/04 09:53:29;;;;;;;3.20;1.92;;;16.10;99.90;;;;;;5072695;28;20139;-65
2023/05/04 09:56:07;;;;;;;5.78;2.55;;;15.90;99.90;;;;;;5072955;28;20391;-65
2023/05/04 09:58:33;;;;;;;7.53;2.03;;;16.00;99.90;;;;;;5072970;28;20028;-65
2023/05/04 10:01:02;;;;;;;5.10;2.17;;;16.00;99.90;;;;;;5072525;28;20189;-64
2023/05/04 10:03:28;;;;;;;3.70;2.53;;;16.40;99.90;;;;;;5072619;28;20056;-68
2023/05/04 10:05:54;;;;;;;3.17;2.10;;;16.10;99.90;;;;;;5072805;28;20044;-68
2023/05/04 10:08:21;;;;;;;3.95;2.60;;;16.30;99.90;;;;;;5054642;28;20162;-64
2023/05/04 10:10:47;;;;;;;6.35;2.60;;;16.40;99.90;;;;;;5072746;28;20048;-71
2023/05/04 10:13:13;;;;;;;3.88;2.10;;;16.50;99.90;;;;;;5071120;28;20416;-73
2023/05/04 10:16:04;;;;;;;6.05;2.40;;;16.70;99.90;;;;;;5072526;28;20043;-68
2023/05/04 10:19:14;;;;;;;3.90;2.30;;;16.70;99.90;;;;;;5062227;28;20127;-69
2023/05/04 10:22:02;;;;;;;3.95;2.30;;;16.70;99.90;;;;;;5072725;28;20485;-65
2023/05/04 10:24:39;;;;;;;4.03;2.20;;;16.80;99.90;;;;;;5072746;28;20441;-68
2023/05/04 10:27:13;;;;;;;3.97;2.35;;;16.90;99.90;;;;;;5071069;28;20040;-69
2023/05/04 10:29:40;;;;;;;6.57;2.40;;;17.00;99.90;;;;;;5071520;28;20033;-67
2023/05/04 10:32:19;;;;;;;5.25;2.13;;;17.00;99.90;;;;;;5072665;28;20076;-68
2023/05/04 10:34:45;;;;;;;5.40;2.45;;;16.90;99.90;;;;;;5071375;28;20503;-65
2023/05/04 10:37:18;;;;;;;5.28;2.42;;;17.00;99.90;;;;;;5072521;28;20115;-66
2023/05/04 10:39:52;;;;;;;3.17;1.83;;;17.30;99.90;;;;;;5072321;28;20400;-70
2023/05/04 10:42:18;;;;;;;6.68;2.13;;;17.50;99.90;;;;;;5072190;28;20059;-68
2023/05/04 10:44:56;;;;;;;8.25;2.58;;;17.50;99.90;;;;;;5071075;28;20419;-67
2023/05/04 10:47:33;;;;;;;3.33;2.40;;;17.30;99.90;;;;;;5072087;28;20091;-67
2023/05/04 10:50:03;;;;;;;4.57;2.53;;;17.30;99.90;;;;;;5072257;28;20439;-67
2023/05/04 10:52:30;;;;;;;6.30;2.42;;;17.20;99.90;;;;;;5071984;28;20067;-70
2023/05/04 10:55:00;;;;;;;4.25;2.15;;;17.30;99.90;;;;;;5070618;28;20086;-65
2023/05/04 10:57:30;;;;;;;4.88;2.40;;;17.20;99.90;;;;;;5071714;28;20040;-64
2023/05/04 10:59:57;;;;;;;4.53;2.33;;;18.20;99.90;;;;;;5075878;28;20426;-68
2023/05/04 11:02:24;;;;;;;5.93;2.45;;;17.40;99.90;;;;;;5075851;28;20396;-67
2023/05/04 11:05:06;;;;;;;5.75;2.75;;;17.30;99.90;;;;;;5075684;28;20040;-67
2023/05/04 11:07:37;;;;;;;4.55;2.38;;;17.30;99.90;;;;;;5074662;28;20047;-74
2023/05/04 11:10:08;;;;;;;3.92;2.10;;;17.20;99.90;;;;;;5074358;28;20363;-67
2023/05/04 11:12:36;;;;;;;3.67;2.47;;;17.30;99.90;;;;;;5074398;28;20044;-66
2023/05/04 11:15:08;;;;;;;3.30;2.20;;;17.40;99.90;;;;;;5074248;28;20040;-66
2023/05/04 11:17:44;;;;;;;3.95;2.53;;;17.40;99.90;;;;;;5075164;28;20503;-67
2023/05/04 11:20:10;;;;;;;4.60;2.58;;;17.50;99.90;;;;;;5074186;28;20066;-70
2023/05/04 11:22:36;;;;;;;4.50;2.20;;;17.60;99.90;;;;;;5075720;28;20112;-66
2023/05/04 11:25:02;;;;;;;6.88;2.05;;;17.60;99.90;;;;;;5075708;28;20484;-66
2023/05/04 11:27:28;;;;;;;6.13;2.42;;;17.70;99.90;;;;;;5075382;28;20051;-69
2023/05/04 11:30:03;;;;;;;4.13;2.53;;;18.50;99.90;;;;;;5075238;28;20080;-67
2023/05/04 11:32:36;;;;;;;5.75;2.80;;;17.80;99.90;;;;;;5074243;28;20481;-66
2023/05/04 11:35:03;;;;;;;4.03;2.38;;;17.90;99.90;;;;;;5075263;28;20103;-66
2023/05/04 11:37:29;;;;;;;5.78;2.85;;;17.90;99.90;;;;;;5073819;28;20086;-67
2023/05/04 11:39:56;;;;;;;3.80;1.98;;;17.90;99.90;;;;;;5073778;28;20051;-66
2023/05/04 11:42:23;;;;;;;5.30;2.53;;;17.90;99.90;;;;;;5075181;28;20045;-68
2023/05/04 11:44:49;;;;;;;4.30;1.85;;;18.00;99.90;;;;;;5075164;28;20079;-63
2023/05/04 11:47:16;;;;;;;3.22;1.98;;;18.10;99.90;;;;;;5074960;28;20613;-64
2023/05/04 11:49:43;;;;;;;3.55;1.98;;;18.10;99.90;;;;;;5075130;28;20423;-65
2023/05/04 11:52:09;;;;;;;5.40;1.77;;;18.20;99.90;;;;;;5075054;28;20439;-65
2023/05/04 11:54:35;;;;;;;3.45;2.00;;;18.10;99.90;;;;;;5074844;28;20200;-63
2023/05/04 11:57:02;;;;;;;2.78;2.08;;;18.00;99.90;;;;;;5074725;28;20131;-65
2023/05/04 11:59:29;;;;;;;2.58;2.00;;;18.10;99.90;;;;;;5074988;28;20037;-63
2023/05/04 12:01:55;;;;;;;3.03;1.90;;;18.90;99.90;;;;;;5074868;28;20043;-63
2023/05/04 12:04:21;;;;;;;5.85;1.73;;;18.00;99.90;;;;;;5074867;28;20051;-68
2023/05/04 12:06:47;;;;;;;2.17;1.75;;;18.30;99.90;;;;;;5074610;28;20036;-66
2023/05/04 12:09:13;;;;;;;2.70;1.98;;;18.90;99.90;;;;;;5073239;28;20114;-66
2023/05/04 12:11:39;;;;;;;3.28;1.83;;;18.30;99.90;;;;;;5074787;28;20036;-66
2023/05/04 12:14:12;;;;;;;3.67;1.85;;;18.40;99.90;;;;;;5073454;28;20095;-66
2023/05/04 12:16:39;;;;;;;4.47;2.03;;;18.50;99.90;;;;;;5074438;28;20493;-66
2023/05/04 12:19:09;;;;;;;5.07;1.80;;;18.50;99.90;;;;;;5056316;28;20082;-63
2023/05/04 12:21:36;;;;;;;3.72;2.03;;;18.70;99.90;;;;;;5074438;28;20044;-63
2023/05/04 12:24:02;;;;;;;3.00;1.52;;;18.60;99.90;;;;;;5074494;28;20037;-63
2023/05/04 12:26:28;;;;;;;2.80;1.75;;;18.70;99.90;;;;;;5074455;28;20386;-63
2023/05/04 12:28:55;;;;;;;3.92;2.25;;;18.80;99.90;;;;;;5074252;28;20052;-63
2023/05/04 12:31:21;;;;;;;5.22;1.77;;;18.90;99.90;;;;;;5074234;28;20041;-63
2023/05/04 12:33:48;;;;;;;3.25;1.58;;;18.80;99.90;;;;;;5074271;28;20408;-63
2023/05/04 12:36:14;;;;;;;3.45;1.67;;;18.90;99.90;;;;;;5074085;28;20487;-64
2023/05/04 12:38:40;;;;;;;4.32;1.95;;;19.00;99.90;;;;;;5074179;28;20119;-68
2023/05/04 12:41:09;;;;;;;4.30;1.80;;;19.10;99.90;;;;;;5072499;28;20041;-63
2023/05/04 12:43:35;;;;;;;3.38;1.80;;;19.20;99.90;;;;;;5072847;28;20028;-64
2023/05/04 12:46:01;;;;;;;5.93;1.63;;;19.10;99.90;;;;;;5074059;28;20036;-64
2023/05/04 12:48:27;;;;;;;2.42;1.33;;;19.20;99.90;;;;;;5072652;28;20041;-63
2023/05/04 12:50:53;;;;;;;3.20;1.38;;;19.30;99.90;;;;;;5073632;28;20040;-64
2023/05/04 12:53:21;;;;;;;3.50;1.50;;;19.10;99.90;;;;;;5073857;28;20086;-63
2023/05/04 12:55:46;;;;;;;2.08;1.27;;;19.30;99.90;;;;;;5073477;28;20044;-67
2023/05/04 12:58:12;;;;;;;1.77;1.30;;;19.40;99.90;;;;;;5073604;28;20093;-66
2023/05/04 13:00:39;;;;;;;5.53;1.48;;;19.40;99.90;;;;;;5073397;28;20476;-67